sensor_id;sensor_type;location;lat;lon;timestamp;P1;durP1;ratioP1;P2;durP2;ratioP2
70132;SDS011;57495;49.922;7.966;2023-03-16T00:00:31;11.65;;;3.25;;
70132;SDS011;57495;49.922;7.966;2023-03-16T00:02:33;5.63;;;2.60;;
70132;SDS011;57495;49.922;7.966;2023-03-16T00:04:35;6.68;;;2.08;;
70132;SDS011;57495;49.922;7.966;2023-03-16T00:06:37;8.00;;;2.58;;
70132;SDS011;57495;49.922;7.966;2023-03-16T00:08:38;5.72;;;2.80;;
70132;SDS011;57495;49.922;7.966;2023-03-16T00:10:42;5.55;;;2.20;;
70132;SDS011;57495;49.922;7.966;2023-03-16T00:12:45;7.15;;;2.78;;
70132;SDS011;57495;49.922;7.966;2023-03-16T00:14:47;8.93;;;3.72;;
70132;SDS011;57495;49.922;7.966;2023-03-16T00:16:49;6.25;;;2.92;;
70132;SDS011;57495;49.922;7.966;2023-03-16T00:18:52;8.98;;;3.88;;
70132;SDS011;57495;49.922;7.966;2023-03-16T00:20:54;7.55;;;3.67;;
70132;SDS011;57495;49.922;7.966;2023-03-16T00:23:01;7.72;;;3.05;;
70132;SDS011;57495;49.922;7.966;2023-03-16T00:25:02;7.78;;;2.95;;
70132;SDS011;57495;49.922;7.966;2023-03-16T00:27:04;9.63;;;2.85;;
70132;SDS011;57495;49.922;7.966;2023-03-16T00:29:06;7.28;;;2.78;;
70132;SDS011;57495;49.922;7.966;2023-03-16T00:31:08;8.75;;;2.42;;
70132;SDS011;57495;49.922;7.966;2023-03-16T00:33:11;7.10;;;2.90;;
70132;SDS011;57495;49.922;7.966;2023-03-16T00:35:14;6.80;;;2.70;;
70132;SDS011;57495;49.922;7.966;2023-03-16T00:37:16;9.07;;;2.58;;
70132;SDS011;57495;49.922;7.966;2023-03-16T00:39:19;7.22;;;3.00;;
70132;SDS011;57495;49.922;7.966;2023-03-16T00:41:21;10.18;;;3.05;;
70132;SDS011;57495;49.922;7.966;2023-03-16T00:43:23;8.70;;;3.28;;
70132;SDS011;57495;49.922;7.966;2023-03-16T00:45:26;11.93;;;3.83;;
70132;SDS011;57495;49.922;7.966;2023-03-16T00:47:28;8.38;;;3.72;;
70132;SDS011;57495;49.922;7.966;2023-03-16T00:49:31;9.80;;;4.43;;
70132;SDS011;57495;49.922;7.966;2023-03-16T00:51:35;10.32;;;4.18;;
70132;SDS011;57495;49.922;7.966;2023-03-16T00:53:36;9.60;;;3.92;;
70132;SDS011;57495;49.922;7.966;2023-03-16T00:55:38;8.75;;;3.50;;
70132;SDS011;57495;49.922;7.966;2023-03-16T00:57:39;7.78;;;3.45;;
70132;SDS011;57495;49.922;7.966;2023-03-16T00:59:41;8.55;;;4.03;;
70132;SDS011;57495;49.922;7.966;2023-03-16T01:01:42;10.52;;;4.35;;
70132;SDS011;57495;49.922;7.966;2023-03-16T01:03:45;9.85;;;4.90;;
70132;SDS011;57495;49.922;7.966;2023-03-16T01:05:47;8.65;;;4.18;;
70132;SDS011;57495;49.922;7.966;2023-03-16T01:07:50;10.07;;;3.47;;
70132;SDS011;57495;49.922;7.966;2023-03-16T01:09:51;8.65;;;3.80;;
70132;SDS011;57495;49.922;7.966;2023-03-16T01:11:53;9.52;;;4.22;;
70132;SDS011;57495;49.922;7.966;2023-03-16T01:13:54;8.18;;;4.10;;
70132;SDS011;57495;49.922;7.966;2023-03-16T01:15:56;8.43;;;3.75;;
70132;SDS011;57495;49.922;7.966;2023-03-16T01:17:57;11.43;;;3.75;;
70132;SDS011;57495;49.922;7.966;2023-03-16T01:19:59;8.57;;;3.85;;
70132;SDS011;57495;49.922;7.966;2023-03-16T01:22:00;7.68;;;3.50;;
70132;SDS011;57495;49.922;7.966;2023-03-16T01:24:04;10.20;;;3.70;;
70132;SDS011;57495;49.922;7.966;2023-03-16T01:26:06;9.88;;;3.80;;
70132;SDS011;57495;49.922;7.966;2023-03-16T01:28:07;8.20;;;3.22;;
70132;SDS011;57495;49.922;7.966;2023-03-16T01:30:09;7.90;;;3.70;;
70132;SDS011;57495;49.922;7.966;2023-03-16T01:32:12;7.80;;;3.47;;
70132;SDS011;57495;49.922;7.966;2023-03-16T01:34:14;6.82;;;3.22;;
70132;SDS011;57495;49.922;7.966;2023-03-16T01:36:17;7.40;;;3.10;;
70132;SDS011;57495;49.922;7.966;2023-03-16T01:38:19;8.57;;;3.40;;
70132;SDS011;57495;49.922;7.966;2023-03-16T01:40:22;10.75;;;3.97;;
70132;SDS011;57495;49.922;7.966;2023-03-16T01:42:24;9.93;;;3.28;;
70132;SDS011;57495;49.922;7.966;2023-03-16T01:44:26;9.88;;;3.85;;
70132;SDS011;57495;49.922;7.966;2023-03-16T01:46:30;8.45;;;3.92;;
70132;SDS011;57495;49.922;7.966;2023-03-16T01:48:32;8.73;;;3.20;;
70132;SDS011;57495;49.922;7.966;2023-03-16T01:50:36;9.27;;;4.22;;
70132;SDS011;57495;49.922;7.966;2023-03-16T01:52:38;10.13;;;4.05;;
70132;SDS011;57495;49.922;7.966;2023-03-16T01:54:41;8.63;;;3.72;;
70132;SDS011;57495;49.922;7.966;2023-03-16T01:56:47;9.00;;;4.03;;
70132;SDS011;57495;49.922;7.966;2023-03-16T01:58:55;8.20;;;3.50;;
70132;SDS011;57495;49.922;7.966;2023-03-16T02:01:00;8.65;;;3.92;;
70132;SDS011;57495;49.922;7.966;2023-03-16T02:03:04;10.43;;;4.20;;
70132;SDS011;57495;49.922;7.966;2023-03-16T02:05:11;7.78;;;3.53;;
70132;SDS011;57495;49.922;7.966;2023-03-16T02:07:15;8.77;;;4.00;;
70132;SDS011;57495;49.922;7.966;2023-03-16T02:09:19;8.20;;;3.88;;
70132;SDS011;57495;49.922;7.966;2023-03-16T02:11:21;9.38;;;4.35;;
70132;SDS011;57495;49.922;7.966;2023-03-16T02:13:25;9.25;;;4.07;;
70132;SDS011;57495;49.922;7.966;2023-03-16T02:15:28;8.93;;;4.00;;
70132;SDS011;57495;49.922;7.966;2023-03-16T02:17:30;11.95;;;4.40;;
70132;SDS011;57495;49.922;7.966;2023-03-16T02:19:35;8.65;;;3.97;;
70132;SDS011;57495;49.922;7.966;2023-03-16T02:21:48;10.40;;;4.20;;
70132;SDS011;57495;49.922;7.966;2023-03-16T02:23:54;9.60;;;4.60;;
70132;SDS011;57495;49.922;7.966;2023-03-16T02:25:56;11.50;;;4.00;;
70132;SDS011;57495;49.922;7.966;2023-03-16T02:28:04;7.85;;;3.70;;
70132;SDS011;57495;49.922;7.966;2023-03-16T02:30:14;8.98;;;4.18;;
70132;SDS011;57495;49.922;7.966;2023-03-16T02:32:16;7.35;;;3.78;;
70132;SDS011;57495;49.922;7.966;2023-03-16T02:34:18;10.00;;;3.60;;
70132;SDS011;57495;49.922;7.966;2023-03-16T02:36:20;10.73;;;4.25;;
70132;SDS011;57495;49.922;7.966;2023-03-16T02:38:22;9.93;;;4.20;;
70132;SDS011;57495;49.922;7.966;2023-03-16T02:40:24;9.10;;;4.22;;
70132;SDS011;57495;49.922;7.966;2023-03-16T02:42:28;7.38;;;3.67;;
70132;SDS011;57495;49.922;7.966;2023-03-16T02:44:31;10.88;;;3.95;;
70132;SDS011;57495;49.922;7.966;2023-03-16T02:46:36;8.98;;;4.32;;
70132;SDS011;57495;49.922;7.966;2023-03-16T02:48:39;9.30;;;4.55;;
70132;SDS011;57495;49.922;7.966;2023-03-16T02:50:45;9.52;;;4.10;;
70132;SDS011;57495;49.922;7.966;2023-03-16T02:52:48;10.30;;;4.32;;
70132;SDS011;57495;49.922;7.966;2023-03-16T02:54:50;13.35;;;4.25;;
70132;SDS011;57495;49.922;7.966;2023-03-16T02:56:51;9.65;;;4.82;;
70132;SDS011;57495;49.922;7.966;2023-03-16T02:58:53;7.35;;;3.83;;
70132;SDS011;57495;49.922;7.966;2023-03-16T03:00:56;11.43;;;4.88;;
70132;SDS011;57495;49.922;7.966;2023-03-16T03:02:59;10.38;;;4.85;;
70132;SDS011;57495;49.922;7.966;2023-03-16T03:05:00;8.90;;;4.53;;
70132;SDS011;57495;49.922;7.966;2023-03-16T03:07:02;10.07;;;4.30;;
70132;SDS011;57495;49.922;7.966;2023-03-16T03:09:04;10.77;;;4.45;;
70132;SDS011;57495;49.922;7.966;2023-03-16T03:11:06;9.18;;;4.72;;
70132;SDS011;57495;49.922;7.966;2023-03-16T03:13:07;9.95;;;4.50;;
70132;SDS011;57495;49.922;7.966;2023-03-16T03:15:09;11.50;;;4.85;;
70132;SDS011;57495;49.922;7.966;2023-03-16T03:17:10;10.75;;;4.72;;
70132;SDS011;57495;49.922;7.966;2023-03-16T03:19:14;10.50;;;4.03;;
70132;SDS011;57495;49.922;7.966;2023-03-16T03:21:16;11.25;;;4.13;;
70132;SDS011;57495;49.922;7.966;2023-03-16T03:23:17;11.63;;;5.15;;
70132;SDS011;57495;49.922;7.966;2023-03-16T03:25:19;13.02;;;5.88;;
70132;SDS011;57495;49.922;7.966;2023-03-16T03:27:22;15.80;;;7.10;;
70132;SDS011;57495;49.922;7.966;2023-03-16T03:29:23;14.32;;;6.78;;
70132;SDS011;57495;49.922;7.966;2023-03-16T03:31:24;20.15;;;6.47;;
70132;SDS011;57495;49.922;7.966;2023-03-16T03:33:26;12.90;;;5.82;;
70132;SDS011;57495;49.922;7.966;2023-03-16T03:35:29;13.88;;;5.75;;
70132;SDS011;57495;49.922;7.966;2023-03-16T03:37:30;12.15;;;5.80;;
70132;SDS011;57495;49.922;7.966;2023-03-16T03:39:32;15.68;;;6.68;;
70132;SDS011;57495;49.922;7.966;2023-03-16T03:41:34;12.57;;;6.53;;
70132;SDS011;57495;49.922;7.966;2023-03-16T03:43:36;13.68;;;5.97;;
70132;SDS011;57495;49.922;7.966;2023-03-16T03:45:37;13.00;;;6.15;;
70132;SDS011;57495;49.922;7.966;2023-03-16T03:47:39;12.18;;;6.10;;
70132;SDS011;57495;49.922;7.966;2023-03-16T03:49:40;10.60;;;5.90;;
70132;SDS011;57495;49.922;7.966;2023-03-16T03:51:43;15.27;;;6.47;;
70132;SDS011;57495;49.922;7.966;2023-03-16T03:53:45;14.88;;;7.03;;
70132;SDS011;57495;49.922;7.966;2023-03-16T03:55:47;13.60;;;7.28;;
70132;SDS011;57495;49.922;7.966;2023-03-16T03:57:49;14.60;;;7.97;;
70132;SDS011;57495;49.922;7.966;2023-03-16T03:59:50;15.50;;;9.02;;
70132;SDS011;57495;49.922;7.966;2023-03-16T04:01:52;16.77;;;8.60;;
70132;SDS011;57495;49.922;7.966;2023-03-16T04:03:53;15.05;;;8.70;;
70132;SDS011;57495;49.922;7.966;2023-03-16T04:05:55;17.23;;;9.85;;
70132;SDS011;57495;49.922;7.966;2023-03-16T04:07:57;17.20;;;8.63;;
70132;SDS011;57495;49.922;7.966;2023-03-16T04:09:59;16.20;;;8.32;;
70132;SDS011;57495;49.922;7.966;2023-03-16T04:12:01;16.60;;;8.55;;
70132;SDS011;57495;49.922;7.966;2023-03-16T04:14:03;14.40;;;7.88;;
70132;SDS011;57495;49.922;7.966;2023-03-16T04:16:05;13.40;;;8.05;;
70132;SDS011;57495;49.922;7.966;2023-03-16T04:18:07;13.95;;;7.97;;
70132;SDS011;57495;49.922;7.966;2023-03-16T04:20:09;13.45;;;7.97;;
70132;SDS011;57495;49.922;7.966;2023-03-16T04:22:13;15.60;;;8.68;;
70132;SDS011;57495;49.922;7.966;2023-03-16T04:24:16;13.95;;;7.65;;
70132;SDS011;57495;49.922;7.966;2023-03-16T04:26:18;17.50;;;8.00;;
70132;SDS011;57495;49.922;7.966;2023-03-16T04:28:20;15.32;;;8.18;;
70132;SDS011;57495;49.922;7.966;2023-03-16T04:30:22;14.90;;;7.70;;
70132;SDS011;57495;49.922;7.966;2023-03-16T04:32:23;14.95;;;7.43;;
70132;SDS011;57495;49.922;7.966;2023-03-16T04:34:25;16.92;;;7.75;;
70132;SDS011;57495;49.922;7.966;2023-03-16T04:36:26;15.68;;;8.10;;
70132;SDS011;57495;49.922;7.966;2023-03-16T04:38:28;14.68;;;7.78;;
70132;SDS011;57495;49.922;7.966;2023-03-16T04:40:31;12.68;;;7.00;;
70132;SDS011;57495;49.922;7.966;2023-03-16T04:42:32;15.27;;;7.60;;
70132;SDS011;57495;49.922;7.966;2023-03-16T04:44:34;17.05;;;6.55;;
70132;SDS011;57495;49.922;7.966;2023-03-16T04:46:43;15.07;;;7.60;;
70132;SDS011;57495;49.922;7.966;2023-03-16T04:48:44;14.55;;;7.47;;
70132;SDS011;57495;49.922;7.966;2023-03-16T04:50:47;12.50;;;6.72;;
70132;SDS011;57495;49.922;7.966;2023-03-16T04:52:49;15.82;;;7.07;;
70132;SDS011;57495;49.922;7.966;2023-03-16T04:54:51;13.75;;;6.93;;
70132;SDS011;57495;49.922;7.966;2023-03-16T04:56:54;13.27;;;6.57;;
70132;SDS011;57495;49.922;7.966;2023-03-16T04:58:55;14.25;;;7.20;;
70132;SDS011;57495;49.922;7.966;2023-03-16T05:00:57;13.02;;;7.10;;
70132;SDS011;57495;49.922;7.966;2023-03-16T05:02:58;13.60;;;6.30;;
70132;SDS011;57495;49.922;7.966;2023-03-16T05:04:59;14.13;;;6.82;;
70132;SDS011;57495;49.922;7.966;2023-03-16T05:07:01;12.32;;;6.47;;
70132;SDS011;57495;49.922;7.966;2023-03-16T05:09:03;17.42;;;8.38;;
70132;SDS011;57495;49.922;7.966;2023-03-16T05:11:06;13.90;;;7.55;;
70132;SDS011;57495;49.922;7.966;2023-03-16T05:13:09;16.50;;;7.97;;
70132;SDS011;57495;49.922;7.966;2023-03-16T05:15:11;16.05;;;7.85;;
70132;SDS011;57495;49.922;7.966;2023-03-16T05:17:12;14.75;;;8.07;;
70132;SDS011;57495;49.922;7.966;2023-03-16T05:19:14;16.25;;;8.27;;
70132;SDS011;57495;49.922;7.966;2023-03-16T05:21:16;15.15;;;8.48;;
70132;SDS011;57495;49.922;7.966;2023-03-16T05:23:17;17.27;;;8.65;;
70132;SDS011;57495;49.922;7.966;2023-03-16T05:25:19;18.35;;;8.63;;
70132;SDS011;57495;49.922;7.966;2023-03-16T05:27:21;16.13;;;8.57;;
70132;SDS011;57495;49.922;7.966;2023-03-16T05:29:23;16.10;;;7.75;;
70132;SDS011;57495;49.922;7.966;2023-03-16T05:31:25;14.13;;;6.53;;
70132;SDS011;57495;49.922;7.966;2023-03-16T05:33:27;14.55;;;7.35;;
70132;SDS011;57495;49.922;7.966;2023-03-16T05:35:29;14.80;;;8.10;;
70132;SDS011;57495;49.922;7.966;2023-03-16T05:37:31;19.45;;;7.38;;
70132;SDS011;57495;49.922;7.966;2023-03-16T05:39:33;15.88;;;8.00;;
70132;SDS011;57495;49.922;7.966;2023-03-16T05:41:35;17.23;;;8.55;;
70132;SDS011;57495;49.922;7.966;2023-03-16T05:43:36;15.73;;;7.93;;
70132;SDS011;57495;49.922;7.966;2023-03-16T05:45:39;15.50;;;8.65;;
70132;SDS011;57495;49.922;7.966;2023-03-16T05:47:41;15.95;;;8.27;;
70132;SDS011;57495;49.922;7.966;2023-03-16T05:49:43;13.25;;;7.45;;
70132;SDS011;57495;49.922;7.966;2023-03-16T05:51:45;14.50;;;6.85;;
70132;SDS011;57495;49.922;7.966;2023-03-16T05:53:47;16.38;;;7.07;;
70132;SDS011;57495;49.922;7.966;2023-03-16T05:55:50;12.02;;;6.43;;
70132;SDS011;57495;49.922;7.966;2023-03-16T05:57:52;12.15;;;6.07;;
70132;SDS011;57495;49.922;7.966;2023-03-16T05:59:53;14.60;;;7.03;;
70132;SDS011;57495;49.922;7.966;2023-03-16T06:01:56;13.57;;;6.00;;
70132;SDS011;57495;49.922;7.966;2023-03-16T06:03:57;15.15;;;6.50;;
70132;SDS011;57495;49.922;7.966;2023-03-16T06:05:58;13.30;;;6.22;;
70132;SDS011;57495;49.922;7.966;2023-03-16T06:08:01;13.02;;;6.90;;
70132;SDS011;57495;49.922;7.966;2023-03-16T06:10:02;14.38;;;6.10;;
70132;SDS011;57495;49.922;7.966;2023-03-16T06:12:05;13.63;;;6.03;;
70132;SDS011;57495;49.922;7.966;2023-03-16T06:14:07;13.32;;;6.70;;
70132;SDS011;57495;49.922;7.966;2023-03-16T06:16:08;14.85;;;6.50;;
70132;SDS011;57495;49.922;7.966;2023-03-16T06:18:14;12.77;;;6.13;;
70132;SDS011;57495;49.922;7.966;2023-03-16T06:20:15;12.80;;;6.35;;
70132;SDS011;57495;49.922;7.966;2023-03-16T06:22:17;11.90;;;6.53;;
70132;SDS011;57495;49.922;7.966;2023-03-16T06:24:19;14.10;;;6.20;;
70132;SDS011;57495;49.922;7.966;2023-03-16T06:26:20;13.35;;;6.03;;
70132;SDS011;57495;49.922;7.966;2023-03-16T06:28:21;13.25;;;6.60;;
70132;SDS011;57495;49.922;7.966;2023-03-16T06:30:23;16.42;;;7.07;;
70132;SDS011;57495;49.922;7.966;2023-03-16T06:32:24;14.73;;;6.53;;
70132;SDS011;57495;49.922;7.966;2023-03-16T06:34:27;12.70;;;5.90;;
70132;SDS011;57495;49.922;7.966;2023-03-16T06:36:29;14.00;;;5.72;;
70132;SDS011;57495;49.922;7.966;2023-03-16T06:38:30;15.35;;;7.07;;
70132;SDS011;57495;49.922;7.966;2023-03-16T06:40:32;14.60;;;6.90;;
70132;SDS011;57495;49.922;7.966;2023-03-16T06:42:34;17.08;;;7.18;;
70132;SDS011;57495;49.922;7.966;2023-03-16T06:44:35;13.80;;;7.20;;
70132;SDS011;57495;49.922;7.966;2023-03-16T06:46:37;16.40;;;6.75;;
70132;SDS011;57495;49.922;7.966;2023-03-16T06:48:38;14.25;;;7.18;;
70132;SDS011;57495;49.922;7.966;2023-03-16T06:50:43;15.18;;;7.05;;
70132;SDS011;57495;49.922;7.966;2023-03-16T06:52:45;16.15;;;7.00;;
70132;SDS011;57495;49.922;7.966;2023-03-16T06:54:46;14.98;;;7.43;;
70132;SDS011;57495;49.922;7.966;2023-03-16T06:56:48;15.45;;;7.22;;
70132;SDS011;57495;49.922;7.966;2023-03-16T06:58:50;13.50;;;7.25;;
70132;SDS011;57495;49.922;7.966;2023-03-16T07:00:51;14.57;;;6.97;;
70132;SDS011;57495;49.922;7.966;2023-03-16T07:02:53;14.13;;;6.97;;
70132;SDS011;57495;49.922;7.966;2023-03-16T07:04:55;12.95;;;6.38;;
70132;SDS011;57495;49.922;7.966;2023-03-16T07:06:57;13.20;;;7.88;;
70132;SDS011;57495;49.922;7.966;2023-03-16T07:08:59;14.80;;;6.88;;
70132;SDS011;57495;49.922;7.966;2023-03-16T07:11:01;15.55;;;7.75;;
70132;SDS011;57495;49.922;7.966;2023-03-16T07:13:02;15.75;;;7.47;;
70132;SDS011;57495;49.922;7.966;2023-03-16T07:15:04;16.70;;;7.55;;
70132;SDS011;57495;49.922;7.966;2023-03-16T07:17:06;14.82;;;7.95;;
70132;SDS011;57495;49.922;7.966;2023-03-16T07:19:07;13.68;;;7.63;;
70132;SDS011;57495;49.922;7.966;2023-03-16T07:21:09;14.10;;;7.53;;
70132;SDS011;57495;49.922;7.966;2023-03-16T07:23:12;16.77;;;7.45;;
70132;SDS011;57495;49.922;7.966;2023-03-16T07:25:13;15.05;;;7.60;;
70132;SDS011;57495;49.922;7.966;2023-03-16T07:27:15;16.48;;;7.43;;
70132;SDS011;57495;49.922;7.966;2023-03-16T07:29:16;15.13;;;7.30;;
70132;SDS011;57495;49.922;7.966;2023-03-16T07:31:17;14.27;;;6.88;;
70132;SDS011;57495;49.922;7.966;2023-03-16T07:33:19;15.23;;;7.70;;
70132;SDS011;57495;49.922;7.966;2023-03-16T07:35:21;13.80;;;7.55;;
70132;SDS011;57495;49.922;7.966;2023-03-16T07:37:22;17.60;;;8.52;;
70132;SDS011;57495;49.922;7.966;2023-03-16T07:39:25;15.32;;;7.32;;
70132;SDS011;57495;49.922;7.966;2023-03-16T07:41:27;15.10;;;7.53;;
70132;SDS011;57495;49.922;7.966;2023-03-16T07:43:29;13.77;;;7.45;;
70132;SDS011;57495;49.922;7.966;2023-03-16T07:45:30;14.77;;;7.05;;
70132;SDS011;57495;49.922;7.966;2023-03-16T07:47:32;14.40;;;7.50;;
70132;SDS011;57495;49.922;7.966;2023-03-16T07:49:34;14.95;;;7.20;;
70132;SDS011;57495;49.922;7.966;2023-03-16T07:51:35;16.83;;;8.13;;
70132;SDS011;57495;49.922;7.966;2023-03-16T07:53:37;13.93;;;7.55;;
70132;SDS011;57495;49.922;7.966;2023-03-16T07:55:40;15.38;;;7.40;;
70132;SDS011;57495;49.922;7.966;2023-03-16T07:57:42;14.77;;;7.05;;
70132;SDS011;57495;49.922;7.966;2023-03-16T07:59:46;13.95;;;7.70;;
70132;SDS011;57495;49.922;7.966;2023-03-16T08:01:48;13.93;;;7.68;;
70132;SDS011;57495;49.922;7.966;2023-03-16T08:03:49;13.68;;;7.60;;
70132;SDS011;57495;49.922;7.966;2023-03-16T08:05:52;13.82;;;7.70;;
70132;SDS011;57495;49.922;7.966;2023-03-16T08:07:54;14.75;;;7.65;;
70132;SDS011;57495;49.922;7.966;2023-03-16T08:09:56;15.50;;;7.47;;
70132;SDS011;57495;49.922;7.966;2023-03-16T08:11:59;17.98;;;7.70;;
70132;SDS011;57495;49.922;7.966;2023-03-16T08:14:00;18.65;;;8.48;;
70132;SDS011;57495;49.922;7.966;2023-03-16T08:16:03;14.48;;;8.25;;
70132;SDS011;57495;49.922;7.966;2023-03-16T08:18:09;14.55;;;7.72;;
70132;SDS011;57495;49.922;7.966;2023-03-16T08:20:11;15.38;;;7.45;;
70132;SDS011;57495;49.922;7.966;2023-03-16T08:22:14;13.10;;;7.30;;
70132;SDS011;57495;49.922;7.966;2023-03-16T08:24:16;13.15;;;7.32;;
70132;SDS011;57495;49.922;7.966;2023-03-16T08:26:17;12.90;;;7.45;;
70132;SDS011;57495;49.922;7.966;2023-03-16T08:28:21;14.30;;;7.93;;
70132;SDS011;57495;49.922;7.966;2023-03-16T08:30:24;16.05;;;8.02;;
70132;SDS011;57495;49.922;7.966;2023-03-16T08:32:25;13.45;;;7.78;;
70132;SDS011;57495;49.922;7.966;2023-03-16T08:34:27;18.13;;;7.30;;
70132;SDS011;57495;49.922;7.966;2023-03-16T08:36:29;16.48;;;7.95;;
70132;SDS011;57495;49.922;7.966;2023-03-16T08:38:31;15.43;;;7.93;;
70132;SDS011;57495;49.922;7.966;2023-03-16T08:40:32;15.32;;;7.63;;
70132;SDS011;57495;49.922;7.966;2023-03-16T08:42:34;14.35;;;7.45;;
70132;SDS011;57495;49.922;7.966;2023-03-16T08:44:37;13.25;;;7.70;;
70132;SDS011;57495;49.922;7.966;2023-03-16T08:46:39;15.00;;;8.15;;
70132;SDS011;57495;49.922;7.966;2023-03-16T08:48:41;16.08;;;9.00;;
70132;SDS011;57495;49.922;7.966;2023-03-16T08:50:43;16.98;;;9.15;;
70132;SDS011;57495;49.922;7.966;2023-03-16T08:52:45;15.32;;;8.55;;
70132;SDS011;57495;49.922;7.966;2023-03-16T08:54:47;16.83;;;9.40;;
70132;SDS011;57495;49.922;7.966;2023-03-16T08:56:49;14.98;;;8.52;;
70132;SDS011;57495;49.922;7.966;2023-03-16T08:58:51;13.95;;;8.10;;
70132;SDS011;57495;49.922;7.966;2023-03-16T09:00:54;15.50;;;8.60;;
70132;SDS011;57495;49.922;7.966;2023-03-16T09:02:55;17.35;;;8.45;;
70132;SDS011;57495;49.922;7.966;2023-03-16T09:04:57;12.32;;;7.38;;
70132;SDS011;57495;49.922;7.966;2023-03-16T09:06:59;15.15;;;8.70;;
70132;SDS011;57495;49.922;7.966;2023-03-16T09:09:00;14.68;;;8.32;;
70132;SDS011;57495;49.922;7.966;2023-03-16T09:11:03;15.18;;;8.43;;
70132;SDS011;57495;49.922;7.966;2023-03-16T09:13:06;17.73;;;8.93;;
70132;SDS011;57495;49.922;7.966;2023-03-16T09:15:08;13.55;;;7.65;;
70132;SDS011;57495;49.922;7.966;2023-03-16T09:17:14;16.42;;;8.73;;
70132;SDS011;57495;49.922;7.966;2023-03-16T09:19:15;14.10;;;8.77;;
70132;SDS011;57495;49.922;7.966;2023-03-16T09:21:17;13.50;;;8.10;;
70132;SDS011;57495;49.922;7.966;2023-03-16T09:23:18;14.70;;;8.63;;
70132;SDS011;57495;49.922;7.966;2023-03-16T09:25:20;13.73;;;8.10;;
70132;SDS011;57495;49.922;7.966;2023-03-16T09:27:21;13.90;;;7.75;;
70132;SDS011;57495;49.922;7.966;2023-03-16T09:29:23;14.30;;;8.27;;
70132;SDS011;57495;49.922;7.966;2023-03-16T09:31:24;15.13;;;8.82;;
70132;SDS011;57495;49.922;7.966;2023-03-16T09:33:27;14.15;;;8.13;;
70132;SDS011;57495;49.922;7.966;2023-03-16T09:35:30;15.18;;;8.60;;
70132;SDS011;57495;49.922;7.966;2023-03-16T09:37:32;14.88;;;8.15;;
70132;SDS011;57495;49.922;7.966;2023-03-16T09:39:35;15.13;;;8.35;;
70132;SDS011;57495;49.922;7.966;2023-03-16T09:41:39;13.52;;;8.10;;
70132;SDS011;57495;49.922;7.966;2023-03-16T09:43:50;14.75;;;8.80;;
70132;SDS011;57495;49.922;7.966;2023-03-16T09:46:02;13.52;;;8.10;;
70132;SDS011;57495;49.922;7.966;2023-03-16T09:48:09;16.08;;;9.25;;
70132;SDS011;57495;49.922;7.966;2023-03-16T09:50:14;15.55;;;9.32;;
70132;SDS011;57495;49.922;7.966;2023-03-16T09:52:23;14.80;;;8.95;;
70132;SDS011;57495;49.922;7.966;2023-03-16T09:54:31;13.93;;;8.52;;
70132;SDS011;57495;49.922;7.966;2023-03-16T09:56:39;12.38;;;7.15;;
70132;SDS011;57495;49.922;7.966;2023-03-16T09:58:42;17.02;;;8.82;;
70132;SDS011;57495;49.922;7.966;2023-03-16T10:00:46;15.30;;;8.95;;
70132;SDS011;57495;49.922;7.966;2023-03-16T10:02:58;16.95;;;8.48;;
70132;SDS011;57495;49.922;7.966;2023-03-16T10:05:08;14.38;;;8.40;;
70132;SDS011;57495;49.922;7.966;2023-03-16T10:07:17;17.10;;;9.65;;
70132;SDS011;57495;49.922;7.966;2023-03-16T10:09:27;16.02;;;9.35;;
70132;SDS011;57495;49.922;7.966;2023-03-16T10:11:34;15.30;;;9.25;;
70132;SDS011;57495;49.922;7.966;2023-03-16T10:13:40;14.73;;;8.30;;
70132;SDS011;57495;49.922;7.966;2023-03-16T10:15:47;16.00;;;9.13;;
70132;SDS011;57495;49.922;7.966;2023-03-16T10:17:52;14.85;;;8.70;;
70132;SDS011;57495;49.922;7.966;2023-03-16T10:20:00;12.38;;;7.38;;
70132;SDS011;57495;49.922;7.966;2023-03-16T10:22:10;13.95;;;8.38;;
70132;SDS011;57495;49.922;7.966;2023-03-16T10:24:22;13.15;;;7.50;;
70132;SDS011;57495;49.922;7.966;2023-03-16T10:26:35;15.00;;;8.88;;
70132;SDS011;57495;49.922;7.966;2023-03-16T10:28:43;15.98;;;8.93;;
70132;SDS011;57495;49.922;7.966;2023-03-16T10:30:46;14.80;;;9.30;;
70132;SDS011;57495;49.922;7.966;2023-03-16T10:32:49;17.17;;;9.32;;
70132;SDS011;57495;49.922;7.966;2023-03-16T10:34:53;15.90;;;9.35;;
70132;SDS011;57495;49.922;7.966;2023-03-16T10:36:57;14.63;;;9.00;;
70132;SDS011;57495;49.922;7.966;2023-03-16T10:39:03;13.60;;;9.05;;
70132;SDS011;57495;49.922;7.966;2023-03-16T10:41:16;16.48;;;9.77;;
70132;SDS011;57495;49.922;7.966;2023-03-16T10:43:21;15.57;;;9.00;;
70132;SDS011;57495;49.922;7.966;2023-03-16T10:45:23;17.23;;;9.48;;
70132;SDS011;57495;49.922;7.966;2023-03-16T10:47:30;13.50;;;9.05;;
70132;SDS011;57495;49.922;7.966;2023-03-16T10:49:34;16.30;;;9.48;;
70132;SDS011;57495;49.922;7.966;2023-03-16T10:51:38;14.98;;;9.50;;
70132;SDS011;57495;49.922;7.966;2023-03-16T10:53:41;13.65;;;8.45;;
70132;SDS011;57495;49.922;7.966;2023-03-16T10:55:46;14.50;;;8.77;;
70132;SDS011;57495;49.922;7.966;2023-03-16T10:57:50;11.52;;;7.82;;
70132;SDS011;57495;49.922;7.966;2023-03-16T10:59:54;11.70;;;6.70;;
70132;SDS011;57495;49.922;7.966;2023-03-16T11:02:00;13.05;;;7.97;;
70132;SDS011;57495;49.922;7.966;2023-03-16T11:04:10;11.13;;;6.65;;
70132;SDS011;57495;49.922;7.966;2023-03-16T11:06:16;10.13;;;6.00;;
70132;SDS011;57495;49.922;7.966;2023-03-16T11:08:22;9.45;;;5.82;;
70132;SDS011;57495;49.922;7.966;2023-03-16T11:10:29;12.25;;;6.75;;
70132;SDS011;57495;49.922;7.966;2023-03-16T11:12:34;11.75;;;7.55;;
70132;SDS011;57495;49.922;7.966;2023-03-16T11:14:35;12.73;;;7.75;;
70132;SDS011;57495;49.922;7.966;2023-03-16T11:16:38;12.82;;;8.27;;
70132;SDS011;57495;49.922;7.966;2023-03-16T11:18:45;12.25;;;7.40;;
70132;SDS011;57495;49.922;7.966;2023-03-16T11:20:50;12.27;;;7.65;;
70132;SDS011;57495;49.922;7.966;2023-03-16T11:22:54;14.43;;;8.35;;
70132;SDS011;57495;49.922;7.966;2023-03-16T11:24:56;12.10;;;7.43;;
70132;SDS011;57495;49.922;7.966;2023-03-16T11:27:07;13.02;;;7.45;;
70132;SDS011;57495;49.922;7.966;2023-03-16T11:29:19;12.85;;;7.57;;
70132;SDS011;57495;49.922;7.966;2023-03-16T11:31:27;13.10;;;7.25;;
70132;SDS011;57495;49.922;7.966;2023-03-16T11:33:41;13.98;;;8.30;;
70132;SDS011;57495;49.922;7.966;2023-03-16T11:35:45;14.65;;;8.75;;
70132;SDS011;57495;49.922;7.966;2023-03-16T11:37:59;11.13;;;7.63;;
70132;SDS011;57495;49.922;7.966;2023-03-16T11:40:15;12.82;;;7.40;;
70132;SDS011;57495;49.922;7.966;2023-03-16T11:42:29;12.50;;;7.15;;
70132;SDS011;57495;49.922;7.966;2023-03-16T11:44:35;12.48;;;7.45;;
70132;SDS011;57495;49.922;7.966;2023-03-16T11:46:46;12.10;;;7.13;;
70132;SDS011;57495;49.922;7.966;2023-03-16T11:48:59;15.63;;;8.13;;
70132;SDS011;57495;49.922;7.966;2023-03-16T11:51:18;13.95;;;8.77;;
70132;SDS011;57495;49.922;7.966;2023-03-16T11:53:37;14.85;;;8.27;;
70132;SDS011;57495;49.922;7.966;2023-03-16T11:55:48;16.70;;;8.90;;
70132;SDS011;57495;49.922;7.966;2023-03-16T11:58:00;12.18;;;7.32;;
70132;SDS011;57495;49.922;7.966;2023-03-16T12:00:20;13.70;;;7.68;;
70132;SDS011;57495;49.922;7.966;2023-03-16T12:02:38;12.25;;;7.80;;
70132;SDS011;57495;49.922;7.966;2023-03-16T12:04:56;14.45;;;7.93;;
70132;SDS011;57495;49.922;7.966;2023-03-16T12:07:13;12.20;;;7.35;;
70132;SDS011;57495;49.922;7.966;2023-03-16T12:09:40;15.10;;;7.35;;
70132;SDS011;57495;49.922;7.966;2023-03-16T12:12:03;11.23;;;7.00;;
70132;SDS011;57495;49.922;7.966;2023-03-16T12:14:12;12.23;;;7.45;;
70132;SDS011;57495;49.922;7.966;2023-03-16T12:16:19;13.15;;;7.38;;